createdAt,value
2022-09-22T00:01:53.408Z,10.02
2022-09-22T00:04:21.892Z,9.98
2022-09-22T00:06:52.193Z,9.97
2022-09-22T00:09:22.522Z,9.85
2022-09-22T00:11:53.984Z,9.82
2022-09-22T00:14:26.662Z,9.86
2022-09-22T00:17:01.112Z,9.93
2022-09-22T00:19:31.948Z,9.83
2022-09-22T00:22:00.928Z,9.84
2022-09-22T00:24:31.028Z,9.86
2022-09-22T00:27:01.124Z,9.88
2022-09-22T00:29:31.623Z,9.83
2022-09-22T00:32:07.173Z,9.92
2022-09-22T00:34:36.147Z,9.95
2022-09-22T00:37:04.542Z,9.82
2022-09-22T00:39:32.873Z,9.80
2022-09-22T00:42:01.262Z,9.85
2022-09-22T00:44:37.700Z,9.82
2022-09-22T00:47:32.649Z,9.70
2022-09-22T00:50:08.934Z,9.77
2022-09-22T00:52:43.338Z,9.78
2022-09-22T00:55:16.970Z,9.74
2022-09-22T00:57:47.590Z,9.74
2022-09-22T01:00:16.866Z,9.75
2022-09-22T01:02:49.736Z,9.72
2022-09-22T01:05:19.078Z,9.70
2022-09-22T01:07:49.560Z,9.66
2022-09-22T01:10:18.646Z,9.66
2022-09-22T01:13:01.450Z,9.62
2022-09-22T01:15:39.085Z,9.57
2022-09-22T01:18:23.462Z,9.61
2022-09-22T01:21:24.938Z,9.62
2022-09-22T01:24:27.149Z,9.58
2022-09-22T01:27:40.199Z,9.53
2022-09-22T01:30:21.884Z,9.55
2022-09-22T01:33:26.821Z,9.58
2022-09-22T01:36:15.002Z,9.57
2022-09-22T01:38:57.622Z,9.51
2022-09-22T01:41:48.887Z,9.39
2022-09-22T01:44:25.859Z,9.39
2022-09-22T01:47:02.403Z,9.41
2022-09-22T01:49:36.732Z,9.38
2022-09-22T01:52:11.554Z,9.44
2022-09-22T01:54:45.734Z,9.37
2022-09-22T01:57:20.052Z,9.36
2022-09-22T01:59:52.746Z,9.35
2022-09-22T02:02:28.118Z,9.30
2022-09-22T02:05:02.363Z,9.20
2022-09-22T02:07:35.656Z,9.31
2022-09-22T02:10:10.184Z,9.28
2022-09-22T02:12:39.512Z,9.29
2022-09-22T02:15:30.112Z,9.20
2022-09-22T02:18:07.669Z,9.14
2022-09-22T02:20:36.730Z,9.25
2022-09-22T02:23:05.131Z,9.44
2022-09-22T02:25:34.174Z,9.77
2022-09-22T02:28:03.766Z,9.66
2022-09-22T02:30:33.243Z,9.73
2022-09-22T02:33:04.160Z,9.89
2022-09-22T02:35:37.982Z,9.86
2022-09-22T02:38:13.266Z,9.77
2022-09-22T02:40:48.214Z,9.62
2022-09-22T02:43:26.828Z,9.77
2022-09-22T02:46:01.272Z,9.68
2022-09-22T02:48:38.116Z,9.40
2022-09-22T02:51:07.051Z,9.24
2022-09-22T02:53:37.621Z,9.09
2022-09-22T02:56:06.582Z,9.08
2022-09-22T02:58:34.966Z,8.94
2022-09-22T03:01:03.541Z,8.86
2022-09-22T03:03:34.043Z,8.82
2022-09-22T03:06:02.481Z,8.76
2022-09-22T03:08:30.874Z,8.70
2022-09-22T03:10:59.214Z,8.68
2022-09-22T03:13:27.551Z,8.57
2022-09-22T03:15:56.055Z,8.56
2022-09-22T03:18:24.401Z,8.59
2022-09-22T03:20:54.183Z,8.61
2022-09-22T03:23:22.515Z,8.52
2022-09-22T03:25:50.960Z,8.41
2022-09-22T03:28:19.359Z,8.40
2022-09-22T03:30:48.038Z,8.47
2022-09-22T03:33:16.535Z,8.41
2022-09-22T03:35:44.960Z,8.33
2022-09-22T03:38:14.777Z,8.40
2022-09-22T03:40:43.425Z,8.44
2022-09-22T03:43:16.483Z,8.43
2022-09-22T03:45:45.974Z,8.33
2022-09-22T03:48:14.414Z,8.37
2022-09-22T03:50:42.825Z,8.32
2022-09-22T03:53:11.241Z,8.15
2022-09-22T03:55:41.025Z,8.04
2022-09-22T03:58:09.633Z,7.99
2022-09-22T04:00:38.546Z,7.97
2022-09-22T04:03:07.043Z,8.07
2022-09-22T04:05:35.520Z,8.10
2022-09-22T04:08:03.885Z,8.04
2022-09-22T04:10:32.427Z,8.01
2022-09-22T04:13:02.253Z,8.00
2022-09-22T04:15:30.661Z,8.05
2022-09-22T04:17:59.160Z,8.05
2022-09-22T04:20:27.649Z,7.96
2022-09-22T04:22:56.050Z,7.95
2022-09-22T04:25:24.600Z,7.81
2022-09-22T04:27:52.965Z,7.72
2022-09-22T04:30:23.817Z,7.81
2022-09-22T04:32:52.283Z,7.79
2022-09-22T04:35:20.656Z,7.79
2022-09-22T04:37:49.160Z,7.88
2022-09-22T04:40:18.342Z,7.88
2022-09-22T04:42:47.371Z,7.86
2022-09-22T04:45:16.639Z,7.81
2022-09-22T04:47:48.917Z,7.71
2022-09-22T04:50:18.838Z,7.58
2022-09-22T04:52:48.280Z,7.59
2022-09-22T04:55:17.157Z,7.66
2022-09-22T04:57:49.604Z,7.59
2022-09-22T05:00:19.373Z,7.62
2022-09-22T05:02:49.910Z,7.66
2022-09-22T05:05:19.002Z,7.65
2022-09-22T05:07:49.567Z,7.54
2022-09-22T05:10:19.100Z,7.60
2022-09-22T05:12:48.304Z,7.58
2022-09-22T05:15:17.008Z,7.52
2022-09-22T05:17:51.874Z,7.43
2022-09-22T05:20:21.522Z,7.40
2022-09-22T05:22:50.248Z,7.40
2022-09-22T05:25:20.882Z,7.36
2022-09-22T05:27:51.199Z,7.46
2022-09-22T05:30:21.655Z,7.51
2022-09-22T05:32:51.943Z,7.60
2022-09-22T05:35:23.254Z,7.69
2022-09-22T05:37:53.858Z,7.76
2022-09-22T05:40:24.107Z,7.75
2022-09-22T05:42:54.556Z,7.71
2022-09-22T05:45:23.146Z,7.71
2022-09-22T05:47:53.464Z,7.78
2022-09-22T05:50:23.750Z,7.76
2022-09-22T05:52:52.332Z,7.70
2022-09-22T05:55:20.770Z,7.69
2022-09-22T05:57:49.320Z,7.64
2022-09-22T06:00:17.945Z,7.76
2022-09-22T06:02:46.471Z,7.80
2022-09-22T06:05:18.970Z,7.92
2022-09-22T06:07:49.163Z,7.88
2022-09-22T06:10:17.891Z,7.93
2022-09-22T06:12:46.371Z,8.00
2022-09-22T06:15:15.125Z,7.99
2022-09-22T06:17:43.608Z,7.92
2022-09-22T06:20:12.033Z,7.96
2022-09-22T06:22:41.940Z,8.02
2022-09-22T06:25:10.950Z,7.87
2022-09-22T06:27:40.216Z,8.01
2022-09-22T06:30:11.189Z,8.06
2022-09-22T06:32:40.277Z,8.16
2022-09-22T06:35:09.701Z,8.23
2022-09-22T06:37:40.331Z,8.29
2022-09-22T06:40:15.295Z,8.41
2022-09-22T06:42:46.502Z,8.39
2022-09-22T06:45:16.170Z,8.40
2022-09-22T06:47:44.641Z,8.41
2022-09-22T06:50:13.067Z,8.50
2022-09-22T06:52:41.488Z,8.47
2022-09-22T06:55:14.260Z,8.54
2022-09-22T06:57:42.656Z,8.57
2022-09-22T07:00:14.480Z,8.65
2022-09-22T07:02:43.026Z,8.74
2022-09-22T07:05:11.853Z,8.77
2022-09-22T07:07:40.320Z,8.92
2022-09-22T07:10:11.723Z,8.97
2022-09-22T07:12:40.160Z,9.17
2022-09-22T07:15:09.966Z,9.11
2022-09-22T07:17:39.422Z,9.33
2022-09-22T07:20:09.706Z,9.54
2022-09-22T07:22:39.678Z,9.62
2022-09-22T07:25:10.509Z,9.59
2022-09-22T07:27:39.205Z,9.84
2022-09-22T07:30:10.284Z,10.11
2022-09-22T07:32:38.795Z,10.47
2022-09-22T07:35:08.356Z,11.49
2022-09-22T07:37:40.286Z,12.66
2022-09-22T07:40:10.943Z,13.44
2022-09-22T07:42:39.419Z,14.33
2022-09-22T07:45:15.395Z,14.42
2022-09-22T07:48:02.960Z,14.51
2022-09-22T07:50:32.073Z,14.74
2022-09-22T07:53:00.628Z,14.93
2022-09-22T07:55:30.544Z,15.28
2022-09-22T07:58:01.537Z,15.11
2022-09-22T08:00:33.174Z,15.38
2022-09-22T08:03:02.243Z,15.43
2022-09-22T08:05:31.120Z,15.98
2022-09-22T08:08:02.263Z,16.49
2022-09-22T08:10:33.911Z,16.36
2022-09-22T08:13:04.457Z,16.86
2022-09-22T08:15:32.942Z,16.56
2022-09-22T08:18:03.845Z,16.61
2022-09-22T08:20:32.350Z,16.03
2022-09-22T08:23:06.757Z,16.88
2022-09-22T08:25:36.604Z,16.41
2022-09-22T08:28:07.709Z,17.35
2022-09-22T08:30:36.507Z,17.83
2022-09-22T08:33:05.025Z,17.84
2022-09-22T08:35:34.614Z,17.95
2022-09-22T08:38:02.998Z,18.34
2022-09-22T08:40:31.524Z,18.65
2022-09-22T08:43:04.384Z,18.16
2022-09-22T08:45:37.288Z,17.68
2022-09-22T08:48:34.981Z,18.34
2022-09-22T08:51:29.630Z,17.60
2022-09-22T08:54:02.550Z,18.16
2022-09-22T08:56:42.467Z,18.73
2022-09-22T08:59:20.185Z,17.92
2022-09-22T09:02:36.701Z,18.33
2022-09-22T09:06:01.407Z,18.57
2022-09-22T09:09:05.357Z,17.90
2022-09-22T09:12:14.640Z,18.57
2022-09-22T09:15:38.232Z,18.85
2022-09-22T09:18:16.086Z,18.74
2022-09-22T09:20:48.345Z,19.27
2022-09-22T09:23:20.774Z,19.83
2022-09-22T09:25:54.363Z,20.08
2022-09-22T09:28:29.238Z,19.72
2022-09-22T09:31:10.666Z,19.78
2022-09-22T09:33:45.904Z,20.06
2022-09-22T09:36:20.620Z,20.59
2022-09-22T09:38:53.791Z,20.32
2022-09-22T09:41:26.330Z,20.18
2022-09-22T09:43:56.408Z,20.30
2022-09-22T09:46:42.002Z,19.91
2022-09-22T09:49:14.999Z,20.32
2022-09-22T09:51:46.836Z,20.29
2022-09-22T09:54:18.061Z,20.16
2022-09-22T09:57:10.177Z,20.48
2022-09-22T09:59:58.461Z,20.58
2022-09-22T10:02:31.136Z,20.30
2022-09-22T10:05:04.527Z,19.93
2022-09-22T10:07:42.094Z,19.40
2022-09-22T10:10:35.527Z,19.30
2022-09-22T10:13:34.363Z,20.38
2022-09-22T10:16:08.149Z,21.04
2022-09-22T10:18:40.763Z,20.99
2022-09-22T10:21:16.482Z,20.76
2022-09-22T10:23:46.949Z,20.60
2022-09-22T10:26:20.097Z,20.53
2022-09-22T10:29:18.201Z,20.58
2022-09-22T10:32:14.588Z,21.06
2022-09-22T10:34:47.345Z,20.94
2022-09-22T10:37:18.903Z,21.26
2022-09-22T10:39:50.256Z,21.64
2022-09-22T10:42:34.294Z,21.39
2022-09-22T10:45:07.066Z,21.34
2022-09-22T10:47:53.042Z,21.29
2022-09-22T10:50:55.389Z,21.27
2022-09-22T10:53:51.365Z,20.50
2022-09-22T10:56:30.747Z,19.96
2022-09-22T10:59:32.583Z,20.26
2022-09-22T11:02:24.007Z,20.71
2022-09-22T11:05:11.282Z,20.92
2022-09-22T11:08:23.721Z,20.68
2022-09-22T11:11:18.398Z,20.84
2022-09-22T11:14:01.263Z,20.29
2022-09-22T11:16:59.003Z,20.58
2022-09-22T11:19:43.984Z,21.06
2022-09-22T11:22:36.502Z,20.58
2022-09-22T11:25:23.832Z,20.55
2022-09-22T11:28:14.499Z,20.73
2022-09-22T11:30:47.305Z,20.30
2022-09-22T11:33:54.884Z,20.73
2022-09-22T11:36:38.562Z,20.89
2022-09-22T11:39:21.089Z,20.25
2022-09-22T11:42:07.965Z,20.29
2022-09-22T11:44:40.497Z,20.38
2022-09-22T11:47:26.911Z,20.12
2022-09-22T11:50:23.361Z,20.42
2022-09-22T11:53:13.116Z,20.68
2022-09-22T11:55:50.004Z,20.87
2022-09-22T11:58:22.762Z,20.77
2022-09-22T12:00:56.733Z,20.77
2022-09-22T12:03:29.149Z,20.37
2022-09-22T12:06:03.336Z,20.27
2022-09-22T12:08:36.943Z,20.33
2022-09-22T12:11:09.073Z,20.66
2022-09-22T12:13:44.315Z,20.83
2022-09-22T12:16:20.914Z,21.02
2022-09-22T12:18:55.491Z,20.38
2022-09-22T12:21:42.888Z,20.29
2022-09-22T12:24:13.465Z,20.51
2022-09-22T12:26:44.974Z,20.56
2022-09-22T12:29:27.811Z,20.83
2022-09-22T12:31:59.034Z,21.05
2022-09-22T12:34:31.976Z,21.00
2022-09-22T12:37:12.833Z,20.68
2022-09-22T12:39:43.942Z,20.41
2022-09-22T12:42:23.171Z,20.35
2022-09-22T12:44:56.610Z,20.26
2022-09-22T12:47:33.498Z,20.17
2022-09-22T12:50:06.630Z,20.36
2022-09-22T12:53:02.641Z,20.26
2022-09-22T12:55:38.448Z,20.54
2022-09-22T12:58:43.755Z,20.54
2022-09-22T13:01:33.506Z,20.07
2022-09-22T13:04:13.917Z,19.85
2022-09-22T13:07:00.618Z,19.87
2022-09-22T13:09:31.805Z,19.64
2022-09-22T13:12:27.052Z,20.00
2022-09-22T13:15:20.648Z,20.11
2022-09-22T13:17:51.099Z,20.30
2022-09-22T13:20:24.901Z,19.99
2022-09-22T13:22:56.619Z,19.94
2022-09-22T13:25:28.825Z,19.60
2022-09-22T13:28:16.484Z,19.38
2022-09-22T13:30:48.877Z,19.68
2022-09-22T13:33:22.791Z,19.95
2022-09-22T13:36:00.541Z,19.93
2022-09-22T13:38:30.338Z,19.78
2022-09-22T13:40:59.079Z,19.90
2022-09-22T13:43:33.389Z,19.41
2022-09-22T13:46:04.469Z,19.40
2022-09-22T13:48:37.134Z,19.20
2022-09-22T13:51:09.243Z,19.15
2022-09-22T13:53:39.055Z,18.98
2022-09-22T13:56:16.923Z,18.95
2022-09-22T13:58:50.731Z,18.95
2022-09-22T14:01:24.107Z,18.99
2022-09-22T14:03:54.147Z,19.06
2022-09-22T14:06:25.149Z,18.94
2022-09-22T14:08:55.102Z,18.87
2022-09-22T14:11:26.038Z,18.85
2022-09-22T14:14:02.727Z,18.91
2022-09-22T14:16:38.474Z,18.95
2022-09-22T14:19:13.820Z,18.92
2022-09-22T14:21:49.279Z,18.50
2022-09-22T14:24:17.927Z,18.55
2022-09-22T14:26:48.772Z,18.72
2022-09-22T14:29:21.362Z,18.82
2022-09-22T14:31:55.414Z,18.98
2022-09-22T14:34:31.197Z,18.96
2022-09-22T14:37:02.335Z,18.92
2022-09-22T14:39:34.217Z,18.88
2022-09-22T14:42:12.055Z,18.91
2022-09-22T14:44:46.161Z,19.05
2022-09-22T14:47:28.840Z,18.98
2022-09-22T14:50:20.110Z,19.01
2022-09-22T14:52:55.850Z,18.91
2022-09-22T14:55:32.843Z,19.03
2022-09-22T14:58:06.653Z,18.99
2022-09-22T15:00:53.665Z,19.05
2022-09-22T15:03:28.161Z,19.13
2022-09-22T15:05:57.041Z,19.08
2022-09-22T15:08:28.850Z,19.11
2022-09-22T15:10:59.741Z,19.08
2022-09-22T15:13:33.241Z,19.02
2022-09-22T15:16:01.704Z,19.12
2022-09-22T15:18:31.526Z,19.24
2022-09-22T15:21:06.817Z,19.12
2022-09-22T15:23:41.059Z,19.18
2022-09-22T15:26:17.876Z,19.06
2022-09-22T15:28:47.737Z,19.12
2022-09-22T15:31:22.480Z,19.13
2022-09-22T15:33:52.571Z,19.00
2022-09-22T15:36:23.026Z,18.95
2022-09-22T15:38:53.128Z,19.03
2022-09-22T15:41:21.499Z,18.89
2022-09-22T15:43:50.003Z,18.88
2022-09-22T15:46:31.542Z,18.82
2022-09-22T15:49:05.586Z,18.82
2022-09-22T15:51:34.013Z,18.72
2022-09-22T15:54:02.624Z,18.63
2022-09-22T15:56:31.884Z,18.62
2022-09-22T15:59:01.898Z,18.61
2022-09-22T16:01:30.604Z,18.55
2022-09-22T16:04:00.277Z,18.56
2022-09-22T16:06:30.366Z,18.34
2022-09-22T16:08:58.783Z,18.24
2022-09-22T16:11:31.870Z,18.15
2022-09-22T16:14:03.788Z,18.24
2022-09-22T16:16:34.027Z,18.18
2022-09-22T16:19:03.422Z,18.17
2022-09-22T16:21:35.646Z,18.24
2022-09-22T16:24:08.177Z,18.20
2022-09-22T16:26:38.337Z,18.16
2022-09-22T16:29:08.158Z,18.11
2022-09-22T16:31:37.191Z,18.00
2022-09-22T16:34:07.859Z,17.97
2022-09-22T16:36:39.822Z,17.91
2022-09-22T16:39:08.427Z,17.87
2022-09-22T16:41:37.775Z,17.80
2022-09-22T16:44:06.373Z,17.81
2022-09-22T16:46:35.100Z,17.79
2022-09-22T16:49:07.581Z,17.78
2022-09-22T16:51:40.888Z,17.66
2022-09-22T16:54:13.233Z,17.65
2022-09-22T16:56:44.321Z,17.59
2022-09-22T16:59:15.270Z,17.59
2022-09-22T17:01:44.738Z,17.57
2022-09-22T17:04:16.756Z,17.48
2022-09-22T17:06:47.290Z,17.40
2022-09-22T17:09:16.688Z,17.23
2022-09-22T17:11:49.117Z,17.25
2022-09-22T17:14:21.162Z,17.20
2022-09-22T17:16:52.040Z,17.14
2022-09-22T17:19:22.961Z,17.07
2022-09-22T17:21:55.178Z,17.04
2022-09-22T17:24:24.960Z,17.01
2022-09-22T17:26:55.300Z,16.95
2022-09-22T17:29:26.466Z,16.88
2022-09-22T17:31:57.597Z,16.81
2022-09-22T17:34:28.468Z,16.77
2022-09-22T17:36:58.948Z,16.66
2022-09-22T17:39:28.998Z,16.60
2022-09-22T17:41:57.594Z,16.54
2022-09-22T17:44:28.826Z,16.55
2022-09-22T17:47:15.148Z,16.51
2022-09-22T17:50:01.126Z,16.48
2022-09-22T17:52:48.427Z,16.43
2022-09-22T17:55:22.705Z,16.35
2022-09-22T17:57:52.663Z,16.37
2022-09-22T18:00:23.888Z,16.38
2022-09-22T18:02:54.284Z,16.31
2022-09-22T18:05:26.872Z,16.26
2022-09-22T18:07:58.609Z,16.22
2022-09-22T18:10:34.002Z,16.15
2022-09-22T18:13:04.344Z,16.10
2022-09-22T18:15:32.812Z,16.06
2022-09-22T18:18:01.340Z,15.94
2022-09-22T18:20:29.805Z,15.93
2022-09-22T18:23:00.275Z,15.84
2022-09-22T18:25:29.000Z,15.79
2022-09-22T18:27:57.861Z,15.73
2022-09-22T18:30:26.553Z,15.69
2022-09-22T18:32:55.011Z,15.69
2022-09-22T18:35:24.166Z,15.62
2022-09-22T18:37:52.763Z,15.52
2022-09-22T18:40:22.599Z,15.53
2022-09-22T18:42:51.011Z,15.41
2022-09-22T18:45:19.510Z,15.38
2022-09-22T18:47:47.855Z,15.38
2022-09-22T18:50:16.436Z,15.32
2022-09-22T18:52:46.389Z,15.26
2022-09-22T18:55:18.828Z,15.15
2022-09-22T18:57:48.585Z,15.18
2022-09-22T19:00:21.153Z,15.07
2022-09-22T19:02:50.441Z,15.00
2022-09-22T19:05:19.447Z,14.97
2022-09-22T19:07:48.390Z,14.90
2022-09-22T19:10:22.033Z,14.89
2022-09-22T19:12:52.015Z,14.87
2022-09-22T19:15:21.182Z,14.78
2022-09-22T19:17:50.612Z,14.76
2022-09-22T19:20:22.561Z,14.70
2022-09-22T19:22:52.408Z,14.67
2022-09-22T19:25:22.397Z,14.64
2022-09-22T19:27:53.441Z,14.59
2022-09-22T19:30:24.965Z,14.51
2022-09-22T19:32:55.557Z,14.53
2022-09-22T19:35:24.062Z,14.49
2022-09-22T19:37:52.911Z,14.48
2022-09-22T19:40:24.853Z,14.39
2022-09-22T19:42:55.783Z,14.38
2022-09-22T19:45:26.223Z,14.27
2022-09-22T19:47:56.962Z,14.24
2022-09-22T19:50:26.007Z,14.19
2022-09-22T19:52:54.339Z,14.16
2022-09-22T19:55:22.771Z,14.09
2022-09-22T19:57:52.360Z,14.13
2022-09-22T20:00:26.228Z,13.98
2022-09-22T20:02:58.474Z,13.89
2022-09-22T20:05:31.613Z,13.82
2022-09-22T20:08:01.454Z,13.77
2022-09-22T20:10:31.247Z,13.74
2022-09-22T20:12:59.634Z,13.73
2022-09-22T20:15:29.509Z,13.60
2022-09-22T20:17:57.997Z,13.59
2022-09-22T20:20:28.815Z,13.56
2022-09-22T20:23:00.485Z,13.51
2022-09-22T20:25:32.388Z,13.56
2022-09-22T20:28:00.787Z,13.49
2022-09-22T20:30:30.586Z,13.46
2022-09-22T20:32:59.262Z,13.43
2022-09-22T20:35:27.821Z,13.38
2022-09-22T20:37:59.213Z,13.31
2022-09-22T20:40:29.117Z,13.33
2022-09-22T20:42:58.067Z,13.20
2022-09-22T20:45:27.267Z,13.19
2022-09-22T20:47:57.163Z,13.12
2022-09-22T20:50:25.837Z,13.18
2022-09-22T20:52:55.455Z,13.12
2022-09-22T20:55:24.088Z,13.11
2022-09-22T20:57:52.516Z,13.00
2022-09-22T21:00:21.054Z,12.99
2022-09-22T21:02:49.750Z,12.86
2022-09-22T21:05:19.818Z,12.80
2022-09-22T21:07:48.273Z,12.81
2022-09-22T21:10:34.044Z,12.75
2022-09-22T21:13:03.372Z,12.58
2022-09-22T21:15:32.070Z,12.59
2022-09-22T21:18:00.466Z,12.60
2022-09-22T21:20:30.225Z,12.56
2022-09-22T21:22:58.605Z,12.41
2022-09-22T21:25:26.904Z,12.31
2022-09-22T21:27:55.293Z,12.33
2022-09-22T21:30:24.373Z,12.34
2022-09-22T21:32:52.839Z,12.30
2022-09-22T21:35:23.892Z,12.07
2022-09-22T21:37:56.224Z,12.09
2022-09-22T21:40:24.964Z,12.03
2022-09-22T21:42:53.327Z,11.90
2022-09-22T21:45:22.019Z,11.94
2022-09-22T21:47:51.930Z,11.90
2022-09-22T21:50:24.348Z,11.88
2022-09-22T21:52:54.044Z,11.89
2022-09-22T21:55:22.723Z,11.89
2022-09-22T21:57:54.024Z,11.84
2022-09-22T22:00:48.003Z,11.80
2022-09-22T22:03:28.736Z,11.78
2022-09-22T22:06:02.505Z,11.72
2022-09-22T22:08:36.900Z,11.79
2022-09-22T22:11:08.618Z,11.74
2022-09-22T22:13:39.413Z,11.68
2022-09-22T22:16:10.168Z,11.72
2022-09-22T22:18:39.702Z,11.65
2022-09-22T22:21:11.946Z,11.57
2022-09-22T22:23:44.705Z,11.55
2022-09-22T22:26:16.327Z,11.66
2022-09-22T22:28:45.788Z,11.57
2022-09-22T22:31:17.537Z,11.58
2022-09-22T22:33:47.098Z,11.57
2022-09-22T22:36:18.582Z,11.59
2022-09-22T22:38:48.324Z,11.63
2022-09-22T22:41:18.191Z,11.61
2022-09-22T22:43:47.943Z,11.57
2022-09-22T22:46:18.936Z,11.53
2022-09-22T22:48:48.974Z,11.57
2022-09-22T22:51:20.325Z,11.55
2022-09-22T22:53:50.982Z,11.58
2022-09-22T22:56:21.752Z,11.59
2022-09-22T22:58:51.509Z,11.58
2022-09-22T23:01:22.728Z,11.57
2022-09-22T23:03:53.577Z,11.56
2022-09-22T23:06:24.781Z,11.52
2022-09-22T23:08:55.676Z,11.50
2022-09-22T23:11:27.290Z,11.50
2022-09-22T23:14:03.369Z,11.50
2022-09-22T23:16:34.551Z,11.51
2022-09-22T23:19:07.747Z,11.49
2022-09-22T23:21:37.631Z,11.43
2022-09-22T23:24:09.030Z,11.55
2022-09-22T23:26:38.407Z,11.50
2022-09-22T23:29:07.078Z,11.42
2022-09-22T23:31:35.703Z,11.28
2022-09-22T23:34:04.174Z,11.39
2022-09-22T23:36:32.770Z,11.32
2022-09-22T23:39:03.798Z,11.28
2022-09-22T23:41:36.966Z,11.25
2022-09-22T23:44:06.957Z,11.15
2022-09-22T23:46:37.568Z,11.25
2022-09-22T23:49:06.863Z,11.16
2022-09-22T23:51:35.405Z,11.20
2022-09-22T23:54:03.802Z,11.17
2022-09-22T23:56:33.655Z,11.02
2022-09-22T23:59:02.045Z,11.12
